Dorchester, Iowa
Current Conditions -  °F | °C
As of 6:15 PM on Thursday 27 Nov 2014 (Local Time) from KDEH Reporting Station
Scattered Clouds Scattered Clouds  
Wind Chill: -15°   Ceiling: Unl
Heat Index: -15°   Visibility: 10mi
Dew Point: -20°   Wind: 3mph
Humidity: 66%   Direction: 240°WSW
Pressure: 30.37"   Gusts: NA
Location:  43.48°N, 91.51°W
Report Text: KDEH 280015Z AUTO 24003KT 10SM SCT065 M15/M20 A3037 RMK AO2
Loading
Personal Weather Stations






























Interactive Weather Map New forecast layout! Learn more

10-Day Weather Forecast

Advertisements
Track Severe Weather on mobile